createdAt,value
2022-09-03T00:01:37.674Z,18
2022-09-03T00:07:29.126Z,17.9
2022-09-03T00:13:25.635Z,17.9
2022-09-03T00:19:16.345Z,17.9
2022-09-03T00:25:08.955Z,18
2022-09-03T00:31:00.311Z,17.8
2022-09-03T00:36:52.391Z,18
2022-09-03T00:42:43.372Z,17.8
2022-09-03T00:48:37.540Z,17.8
2022-09-03T00:54:30.661Z,17.9
2022-09-03T01:00:21.751Z,17.8
2022-09-03T01:06:12.243Z,17.7
2022-09-03T01:12:04.857Z,17.8
2022-09-03T01:17:55.582Z,17.7
2022-09-03T01:23:46.904Z,17.6
2022-09-03T01:29:39.640Z,17.7
2022-09-03T01:35:32.420Z,17.8
2022-09-03T01:41:24.120Z,17.5
2022-09-03T01:47:14.648Z,17.6
2022-09-03T01:53:05.821Z,17.5
2022-09-03T01:58:56.810Z,17.5
2022-09-03T02:04:47.445Z,17.5
2022-09-03T02:10:40.157Z,17.4
2022-09-03T02:16:31.956Z,17.5
2022-09-03T02:22:23.235Z,17.5
2022-09-03T02:28:17.545Z,17.3
2022-09-03T02:34:08.040Z,17.3
2022-09-03T02:40:00.996Z,17.4
2022-09-03T02:45:52.114Z,17.5
2022-09-03T02:51:43.584Z,17.4
2022-09-03T02:57:34.028Z,17.3
2022-09-03T03:03:25.179Z,17.3
2022-09-03T03:09:16.083Z,17.3
2022-09-03T03:15:07.092Z,17.3
2022-09-03T03:20:58.381Z,17.3
2022-09-03T03:26:48.878Z,17.3
2022-09-03T03:32:39.746Z,17.2
2022-09-03T03:38:30.284Z,17.3
2022-09-03T03:44:21.210Z,17.2
2022-09-03T03:50:12.333Z,17.4
2022-09-03T03:56:02.749Z,17.4
2022-09-03T04:01:53.690Z,17.4
2022-09-03T04:07:46.041Z,17.5
2022-09-03T04:13:36.453Z,17.4
2022-09-03T04:19:27.248Z,17.4
2022-09-03T04:25:17.959Z,17.4
2022-09-03T04:31:09.509Z,17.3
2022-09-03T04:37:01.887Z,17.2
2022-09-03T04:42:54.395Z,17.3
2022-09-03T04:48:44.799Z,17.3
2022-09-03T04:54:35.412Z,17.4
2022-09-03T05:00:27.030Z,17.4
2022-09-03T05:06:18.265Z,17.5
2022-09-03T05:12:09.117Z,17.5
2022-09-03T05:18:02.346Z,17.5
2022-09-03T05:23:54.349Z,17.5
2022-09-03T05:29:45.519Z,17.4
2022-09-03T05:35:36.748Z,17.7
2022-09-03T05:41:28.157Z,17.6
2022-09-03T05:47:19.630Z,17.6
2022-09-03T05:53:10.629Z,17.6
2022-09-03T05:59:02.301Z,17.8
2022-09-03T06:04:53.618Z,17.9
2022-09-03T06:10:45.105Z,17.8
2022-09-03T06:16:37.234Z,17.9
2022-09-03T06:22:29.419Z,18.1
2022-09-03T06:28:19.377Z,18.1
2022-09-03T06:34:15.778Z,18.1
2022-09-03T06:40:06.979Z,18.1
2022-09-03T06:45:58.418Z,18.3
2022-09-03T06:51:50.893Z,18
2022-09-03T06:57:42.371Z,17.9
2022-09-03T07:03:39.678Z,17.8
2022-09-03T07:09:29.981Z,17.7
2022-09-03T07:15:20.225Z,17.7
2022-09-03T07:21:11.105Z,17.7
2022-09-03T07:27:02.620Z,17.5
2022-09-03T07:32:59.605Z,17.3
2022-09-03T07:38:50.786Z,17.3
2022-09-03T07:44:41.611Z,17.1
2022-09-03T07:50:32.776Z,17.2
2022-09-03T07:56:27.070Z,17.3
2022-09-03T08:02:18.449Z,17.2
2022-09-03T08:08:10.834Z,17.2
2022-09-03T08:14:06.913Z,17.3
2022-09-03T08:20:05.527Z,17.4
2022-09-03T08:26:01.478Z,17.5
2022-09-03T08:45:09.092Z,17.9
2022-09-03T08:57:33.018Z,18.3
2022-09-03T09:09:47.636Z,18.6
2022-09-03T09:15:45.611Z,18.5
2022-09-03T09:34:30.174Z,18.7
2022-09-03T09:40:20.834Z,18.8
2022-09-03T09:46:11.521Z,18.9
2022-09-03T09:52:05.626Z,19.2
2022-09-03T10:11:23.007Z,20
2022-09-03T10:17:18.210Z,20.1
2022-09-03T10:23:28.814Z,20.3
2022-09-03T10:29:29.096Z,20.2
2022-09-03T10:35:22.469Z,20.2
2022-09-03T10:41:18.796Z,20.3
2022-09-03T10:47:13.944Z,20.5
2022-09-03T11:12:07.134Z,21
2022-09-03T11:18:26.892Z,21.4
2022-09-03T11:24:24.692Z,21.4
2022-09-03T11:30:17.913Z,21.9
2022-09-03T11:36:14.214Z,22.3
2022-09-03T11:42:23.300Z,22.1
2022-09-03T11:48:31.740Z,22.1
2022-09-03T11:54:43.431Z,22.5
2022-09-03T12:00:35.694Z,23.1
2022-09-03T12:06:29.013Z,23.2
2022-09-03T12:12:25.920Z,23.5
2022-09-03T12:18:36.546Z,23.6
2022-09-03T12:24:37.682Z,23.6
2022-09-03T12:30:28.952Z,23.8
2022-09-03T12:36:21.922Z,23.8
2022-09-03T12:42:13.822Z,24
2022-09-03T12:48:12.089Z,23.8
2022-09-03T12:54:03.165Z,23.8
2022-09-03T12:59:57.226Z,23.7
2022-09-03T13:12:17.517Z,23.6
2022-09-03T13:18:09.666Z,23.5
2022-09-03T13:24:01.461Z,23.8
2022-09-03T13:36:37.435Z,24.3
2022-09-03T13:42:30.397Z,24.1
2022-09-03T13:48:22.093Z,24
2022-09-03T13:54:31.138Z,24.2
2022-09-03T14:00:37.308Z,24.3
2022-09-03T14:06:29.327Z,24.2
2022-09-03T14:12:22.332Z,24.4
2022-09-03T14:18:13.659Z,24.8
2022-09-03T14:24:06.290Z,24.8
2022-09-03T14:30:31.521Z,24.9
2022-09-03T14:36:44.531Z,24.8
2022-09-03T14:42:38.353Z,24.7
2022-09-03T14:49:20.805Z,25
2022-09-03T14:55:46.513Z,24.9
2022-09-03T15:01:56.761Z,24.8
2022-09-03T15:08:38.178Z,24.8
2022-09-03T15:14:30.137Z,24.6
2022-09-03T15:21:13.298Z,24.6
2022-09-03T15:34:02.571Z,23
2022-09-03T15:39:57.238Z,22.2
2022-09-03T15:46:57.131Z,22.3
2022-09-03T15:59:34.997Z,21.8
2022-09-03T16:18:56.738Z,21.1
2022-09-03T16:24:50.087Z,20.4
2022-09-03T16:30:47.564Z,20.6
2022-09-03T16:36:52.316Z,20.3
2022-09-03T16:42:44.757Z,20.4
2022-09-03T16:48:36.656Z,20.1
2022-09-03T16:54:28.243Z,20.2
2022-09-03T17:00:20.596Z,20
2022-09-03T17:12:21.140Z,20.2
2022-09-03T17:18:13.651Z,20.2
2022-09-03T17:24:08.083Z,20
2022-09-03T17:29:59.624Z,20
2022-09-03T17:35:50.231Z,20.1
2022-09-03T17:41:40.012Z,19.9
2022-09-03T17:47:30.188Z,20
2022-09-03T17:53:21.980Z,19.9
2022-09-03T17:59:13.609Z,19.9
2022-09-03T18:05:06.349Z,19.8
2022-09-03T18:10:59.682Z,19.7
2022-09-03T18:16:50.033Z,19.6
2022-09-03T18:22:41.242Z,19.5
2022-09-03T18:28:32.866Z,19.5
2022-09-03T18:34:26.122Z,19.3
2022-09-03T18:47:16.396Z,19.4
2022-09-03T18:54:05.868Z,19.2
2022-09-03T19:00:00.984Z,19.1
2022-09-03T19:05:51.099Z,19.1
2022-09-03T19:11:42.933Z,19
2022-09-03T19:17:44.280Z,19
2022-09-03T19:23:36.631Z,19
2022-09-03T19:29:30.006Z,19
2022-09-03T19:35:36.510Z,18.9
2022-09-03T19:41:26.539Z,18.9
2022-09-03T19:47:29.826Z,18.7
2022-09-03T19:53:20.002Z,18.6
2022-09-03T19:59:10.902Z,18.8
2022-09-03T20:05:02.085Z,18.7
2022-09-03T20:11:01.240Z,18.6
2022-09-03T20:16:56.774Z,18.5
2022-09-03T20:47:42.215Z,18.4
2022-09-03T21:00:07.286Z,18.4
2022-09-03T21:06:01.147Z,18.3
2022-09-03T21:11:55.785Z,18.3
2022-09-03T21:17:46.326Z,18.3
2022-09-03T21:23:39.922Z,18.2
2022-09-03T21:36:38.828Z,18.3
2022-09-03T21:43:08.493Z,18.3
2022-09-03T21:49:25.185Z,18.2
2022-09-03T21:55:41.117Z,18.1
2022-09-03T22:01:33.458Z,18.3
2022-09-03T22:07:25.195Z,18.2
2022-09-03T22:13:18.414Z,18.1
2022-09-03T22:19:11.216Z,18.1
2022-09-03T22:25:14.164Z,18
2022-09-03T22:31:29.947Z,18
2022-09-03T22:37:30.724Z,18.1
2022-09-03T22:43:20.757Z,17.9
2022-09-03T22:49:20.802Z,18
2022-09-03T23:01:25.560Z,18.1
2022-09-03T23:28:00.126Z,17.9
2022-09-03T23:34:43.058Z,17.8
